Glenshire Elementary, Truckee, California Weather observations

Data are for observation ending at time listed.
 Day   Time    Ave.   Ave.  Ave.  Vector   Max.   Stn.    Total    Solar   Ave.   Snow 
  of    of     Air    Rel.  Wind   Wind    Wind   Baro.  Precip.   Rad.    Soil   Depth
Year   Day     Temp.  Hum.  Speed  Dir.    Gust   Pres.                    Temp.       
2014   (PST)    F      %     mph   deg.    mph     mb.     in.     W/m2     F      in. 
---------------------------------------------------------------------------------------  
 272   16:20   65.2    32    2.5   140      6.3   820.0    0.00     166    60.7   999.0
 272   16:30   64.6    33    2.3   161      5.4   820.0    0.00      97    60.7   999.0
 272   16:40   63.7    34    2.3   108      6.3   820.0    0.00      64    60.6   999.0
 272   16:50   62.2    45    2.6    81      6.3   820.0    0.00      52    60.6   999.0
 272   17:00   62.1    48    1.9    68      8.0   820.0    0.00      56    60.7   999.0
 272   17:10   61.9    49    1.5    69      6.3   820.1    0.00      56    60.7   999.0
 272   17:20   61.9    50    1.1    41      4.6   820.2    0.00      24    60.6   999.0
 272   17:30   60.3    54    0.9    36      4.6   820.2    0.00       0    60.6   999.0
 272   17:40   58.7    57    0.7   348      3.8   820.2    0.00       0    60.6   999.0
 272   17:50   57.0    61    0.8     7      5.4   820.3    0.00       0    60.6   999.0
 272   18:00   56.2    63    0.6   357      3.8   820.2    0.00       0    60.5   999.0
 272   18:10   55.3    66    0.4   257      2.9   820.3    0.00       0    60.6   999.0
 272   18:20   54.3    68    0.6    59      2.9   820.4    0.00       0    60.5   999.0
 272   18:30   53.7    70    0.4    64      0.4   820.4    0.00       0    60.6   999.0
 272   18:40   53.3    71    0.5   352      2.1   820.6    0.00       0    60.5   999.0
 272   18:50   53.1    72    0.4   272      0.4   820.6    0.00       0    60.6   999.0
 272   19:00   52.7    73    0.4   253      0.4   820.7    0.00       0    60.5   999.0
 272   19:10   52.8    73    0.9    77      3.8   820.6    0.00       0    60.6   999.0
 272   19:20   52.4    74    0.4   300      1.2   820.7    0.00       0    60.5   999.0
 272   19:30   51.9    74    0.4   320      2.1   820.7    0.00       0    60.5   999.0
 272   19:40   51.4    74    0.4   288      0.4   820.7    0.00       0    60.5   999.0
 272   19:50   50.9    75    0.5   302      2.9   820.8    0.00       0    60.5   999.0
 272   20:00   49.3    79    0.8    76      2.9   820.9    0.00       0    60.5   999.0
 272   20:10   49.9    77    0.5    39      2.1   821.0    0.00       0    60.5   999.0
 272   20:20   49.4    77    0.4    35      0.4   821.1    0.00       0    60.5   999.0
 272   20:30   48.2    79    0.4   303      2.1   821.1    0.00       0    60.5   999.0
 272   20:40   47.2    81    0.4   304      0.4   821.1    0.00       0    60.5   999.0
 272   20:50   46.7    82    0.4   304      0.4   821.0    0.00       0    60.5   999.0
 272   21:00   45.7    85    0.5    77      2.1   821.0    0.00       0    60.5   999.0
 272   21:10   45.3    86    0.4    86      0.4   821.2    0.00       0    60.5   999.0
 272   21:20   45.2    86    0.4   348      0.4   821.2    0.00       0    60.5   999.0
 272   21:30   44.7    86    0.4   326      0.4   821.2    0.00       0    60.5   999.0
 272   21:40   44.2    87    0.4   326      0.4   821.2    0.00       0    60.5   999.0
 272   21:50   43.7    89    0.4   326      0.4   821.2    0.00       0    60.5   999.0
 272   22:00   43.3    90    0.4   326      0.4   821.2    0.00       0    60.5   999.0
 272   22:10   43.2    90    0.4   326      0.4   821.3    0.00       0    60.5   999.0
 272   22:20   42.9    89    0.4   326      0.4   821.3    0.00       0    60.5   999.0
 272   22:30   42.7    90    0.4   326      0.4   821.3    0.00       0    60.5   999.0
 272   22:40   42.0    91    0.4   326      0.4   821.2    0.00       0    60.5   999.0
 272   22:50   41.6    91    0.4   326      0.4   821.1    0.00       0    60.5   999.0
 272   23:00   41.3    92    0.4   326      0.4   821.1    0.00       0    60.5   999.0
 272   23:10   41.1    92    0.4   326      0.4   821.1    0.00       0    60.5   999.0
 272   23:20   41.0    93    0.4   326      0.4   821.0    0.00       0    60.5   999.0
 272   23:30   40.7    93    0.4   319      0.4   821.0    0.00       0    60.5   999.0
 272   23:40   40.3    93    0.4   260      0.4   821.0    0.00       0    60.5   999.0
 272   23:50   40.3    93    0.4   260      0.4   820.9    0.00       0    60.5   999.0
 273    0:00   39.8    93    0.4   260      0.4   820.9    0.00       0    60.5   999.0
 273    0:10   39.3    93    0.4   260      0.4   820.8    0.00       0    60.5   999.0
 273    0:20   38.9    93    0.4   260      0.4   820.7    0.00       0    60.5   999.0
 273    0:30   38.6    93    0.4   260      0.4   820.6    0.00       0    60.4   999.0
 273    0:40   38.6    93    0.4   260      0.4   820.6    0.00       0    60.4   999.0
 273    0:50   38.6    94    0.4   260      0.4   820.6    0.00       0    60.4   999.0
 273    1:00   38.8    94    0.4   260      0.4   820.6    0.00       0    60.4   999.0
 273    1:10   38.7    94    0.4   260      0.4   820.5    0.00       0    60.4   999.0
 273    1:20   38.3    94    0.4   260      0.4   820.6    0.00       0    60.4   999.0
 273    1:30   38.1    94    0.4   261      0.4   820.7    0.00       0    60.4   999.0
 273    1:40   37.9    94    0.4   261      0.4   820.6    0.00       0    60.4   999.0
 273    1:50   37.4    94    0.4   261      0.4   820.4    0.00       0    60.4   999.0
 273    2:00   36.8    94    0.4   260      0.4   820.4    0.00       0    60.4   999.0
 273    2:10   36.5    94    0.4   254      0.4   820.3    0.00       0    60.4   999.0
 273    2:20   36.3    94    0.4   227      0.4   820.4    0.00       0    60.4   999.0
 273    2:30   36.2    95    0.4   227      0.4   820.2    0.00       0    60.4   999.0
 273    2:40   35.9    95    0.4   216      0.4   820.2    0.00       0    60.4   999.0
 273    2:50   35.6    95    0.4   191      0.4   820.1    0.00       0    60.4   999.0
 273    3:00   35.1    95    0.6   127      2.9   820.1    0.00       0    60.4   999.0
 273    3:10   34.6    95    0.5    78      2.1   820.0    0.00       0    60.4   999.0
 273    3:20   34.7    95    0.4    78      2.1   820.0    0.00       0    60.4   999.0
 273    3:30   34.7    95    0.5    78      2.1   820.0    0.00       0    60.4   999.0
 273    3:40   35.1    95    0.4    78      0.4   820.0    0.00       0    60.4   999.0
 273    3:50   35.4    95    0.4   270      1.2   819.9    0.00       0    60.4   999.0
 273    4:00   35.4    95    0.5   330      2.1   819.9    0.00       0    60.4   999.0
 273    4:10   35.3    95    0.9    75      3.8   820.0    0.00       0    60.4   999.0
 273    4:20   35.3    96    0.4    76      0.4   820.0    0.00       0    60.4   999.0
 273    4:30   35.5    96    0.4    76      0.4   820.1    0.00       0    60.4   999.0
 273    4:40   35.7    96    0.4    76      0.4   820.2    0.00       0    60.4   999.0
 273    4:50   35.8    96    0.4    76      0.4   820.2    0.00       0    60.4   999.0
 273    5:00   35.7    96    0.6   314      2.9   820.1    0.00       0    60.4   999.0
 273    5:10   34.8    96    0.7   360      2.9   820.0    0.00       0    60.4   999.0
 273    5:20   34.3    96    1.0    75      3.8   820.1    0.00       0    60.4   999.0
 273    5:30   34.2    96    0.5    24      2.1   820.1    0.00       0    60.4   999.0
 273    5:40   34.3    96    0.4    21      0.4   820.1    0.00       0    60.3   999.0
 273    5:50   34.1    96    0.5    14      2.1   820.0    0.00       0    60.3   999.0
 273    6:00   33.8    96    0.9   103      2.9   820.1    0.00       0    60.3   999.0
 273    6:10   33.9    96    0.4    60      0.4   820.2    0.00       0    60.3   999.0
 273    6:20   34.3    96    0.4    30      0.4   820.3    0.00       0    60.3   999.0
 273    6:30   34.5    96    0.4   356      0.4   820.5    0.00       0    60.3   999.0
 273    6:40   34.5    96    0.4   274      0.4   820.6    0.00      22    60.3   999.0
 273    6:50   34.9    96    0.5   257      2.1   820.7    0.00      55    60.3   999.0
 273    7:00   35.5    96    0.4   257      0.4   820.8    0.00      64    60.3   999.0
 273    7:10   35.9    96    0.5   258      2.1   820.8    0.00      65    60.3   999.0
 273    7:20   35.6    96    0.6    70      2.9   820.8    0.00      91    60.3   999.0
 273    7:30   35.7    96    0.7    76      2.1   820.8    0.00     137    60.3   999.0
 273    7:40   36.4    96    1.7    68      3.8   820.8    0.00     150    60.3   999.0
 273    7:50   36.0    96    1.7    77      4.6   820.8    0.00     159    60.3   999.0
 273    8:00   36.2    96    1.6    75      3.8   820.8    0.00     235    60.3   999.0
 273    8:10   37.3    96    1.6    81      2.9   820.7    0.00     324    60.3   999.0
 273    8:20   39.0    95    0.6    88      2.1   820.7    0.00     193    60.4   999.0
 273    8:30   39.9    95    1.1    65      2.9   820.6    0.00      79    60.3   999.0
 273    8:40   41.2    95    1.2    70      2.9   820.6    0.00     358    60.3   999.0
 273    8:50   42.9    95    1.2    70      2.9   820.6    0.00     438    60.3   999.0
 273    9:00   45.1    94    0.4    88      2.1   820.5    0.00     455    60.3   999.0
 273    9:10   47.7    90    0.8   210      2.9   820.5    0.00     473    60.3   999.0
 273    9:20   50.2    78    0.7   198      2.9   820.4    0.00     518    60.3   999.0
 273    9:30   53.0    69    0.5   237      2.1   820.2    0.00     514    60.4   999.0
 273    9:40   54.9    65    1.1   183      4.6   820.2    0.00     545    60.4   999.0
 273    9:50   55.6    61    1.5   202      3.8   820.1    0.00     545    60.4   999.0
 273   10:00   56.1    56    1.4    75      4.6   820.1    0.00     579    60.3   999.0
 273   10:10   57.5    53    2.2    93      6.3   820.0    0.00     590    60.3   999.0
 273   10:20   58.5    50    1.5    73      4.6   819.8    0.00     604    60.3   999.0
 273   10:30   58.8    47    2.7    85      6.3   819.7    0.00     593    60.3   999.0
 273   10:40   58.6    49    3.7    79      9.6   819.6    0.00     613    60.3   999.0
 273   10:50   60.0    45    2.0    71      6.3   819.5    0.00     655    60.3   999.0
 273   11:00   60.2    44    3.4    81     11.3   819.5    0.00     675    60.3   999.0
 273   11:10   61.0    40    1.3   101      4.6   819.4    0.00     675    60.3   999.0
 273   11:20   61.2    40    2.0   118      6.3   819.3    0.00     692    60.3   999.0
 273   11:30   62.2    34    2.0    74      8.0   819.2    0.00     694    60.3   999.0
 273   11:40   62.8    32    3.5    97     10.5   819.1    0.00     673    60.3   999.0
 273   11:50   62.4    32    3.1    76      8.8   819.1    0.00     675    60.2   999.0
 273   12:00   63.2    32    3.5    77      8.8   819.0    0.00     674    60.2   999.0
 273   12:10   63.3    32    5.3    79     10.5   818.9    0.00     675    60.3   999.0
 273   12:20   62.7    32    4.7    78      9.6   818.9    0.00     675    60.3   999.0
 273   12:30   63.3    30    5.1    75     13.0   818.8    0.00     675    60.3   999.0
 273   12:40   63.5    31    4.0    73      8.0   818.7    0.00     669    60.3   999.0
 273   12:50   64.1    32    3.9    73     13.8   818.5    0.00     665    60.3   999.0
 273   13:00   64.2    32    4.9    78     16.3   818.4    0.00     675    60.3   999.0
 273   13:10   64.4    32    4.8    75     12.1   818.4    0.00     662    60.3   999.0
 273   13:20   65.8    30    2.3    24      9.6   818.2    0.00     667    60.3   999.0
 273   13:30   67.1    30    2.7    58      8.8   818.2    0.00     677    60.3   999.0
 273   13:40   66.8    30    2.4    69      7.1   818.1    0.00     684    60.3   999.0
 273   13:50   68.1    29    2.4    72     11.3   818.0    0.00     712    60.3   999.0
 273   14:00   65.7    32    5.8    76     12.1   817.9    0.00     532    60.2   999.0
 273   14:10   65.4    32    4.3    75     13.0   817.9    0.00     670    60.2   999.0
 273   14:20   66.7    31    3.7    77     12.1   817.9    0.00     674    60.2   999.0
 273   14:30   65.5    32    4.9    78     11.3   817.8    0.00     452    60.2   999.0
 273   14:40   65.4    32    3.5    73     12.1   817.8    0.00     544    60.2   999.0
 273   14:50   65.2    32    4.0    70     13.0   817.8    0.00     481    60.2   999.0
 273   15:00   65.8    32    3.2    82     10.5   817.7    0.00     547    60.2   999.0
 273   15:10   65.7    32    3.9    79     10.5   817.8    0.00     544    60.2   999.0
 273   15:20   65.1    32    5.5    77     15.5   817.7    0.00     505    60.2   999.0
 273   15:30   65.2    32    3.8    72     11.3   817.7    0.00     463    60.1   999.0
 273   15:40   65.9    32    3.8    74     13.8   817.7    0.00     447    60.2   999.0
 273   15:50   64.4    33    5.0    80     13.8   817.6    0.00     386    60.1   999.0
 273   16:00   65.0    33    2.6    70     10.5   817.7    0.00     332    60.1   999.0
 273   16:10   64.0    34    4.3    74     11.3   817.7    0.00     311    60.1   999.0

Return to Glenshire Elementary graphs page.


Western Regional Climate Center,wrcc@dri.edu